Portada
METAR-TAF:

METAR-TAF

Aeroports :

Talara, Perú

latitud: 04-34S, longitud: 081-15W, altitud: 85 m

Observació

L'informe es va fer fa 1 hora i 9 minuts, a les 16:00 UTC
Vent 10 kt del Sud/Sud-Est
Temperatura 25°C
Humitat 57%
Pressió 1015 hPa
Visibilitat 10 km o més
sense núvols per sota de 1500 mi sense presència de cumulonimbus.

METAR: SPYL 171600Z 16010KT CAVOK 25/16 Q1015 RMK BIRD HAZARD RWY 17/35 PP000

Hora: 12:09 (17:09 UTC)

Pronòstic

L'informe es va fer fa 6 hores i 39 minuts, a les 10:30 UTC
Pronòstic vàlid del 17 a les 12 UTC al 18 a les 12 UTC
Vent 16 kt del Sud/Sud-Est
Visibilitat 10 km o més
sense núvols per sota de 1500 mi sense presència de cumulonimbus.
Temporalment
l' 17 a les 12 UTC al 17 a les 14 UTC
Escasses núvols a una alçada de 2000 ft
Cel ennuvolat a una alçada de 4000 ft

TAF: SPYL 171030Z 1712/1812 16016KT CAVOK TX27/1719Z TN16/1811Z TEMPO 1712/1714 FEW020 BKN040

Observacions i pronòstics meteorològics de més de 4000 aeroports (METAR i TAF).

Les estacions disponibles són els punts grocs i vermells al mapa.

Posi el ratolí al punt desitjat per veure el nom de l'estació.

Feu clic per veure les observacions i els pronòstics meteorològics.

Per canviar el mapa: feu clic els botons verds amb una creu de color negre per apropar; al botó verd amb un guió per allunyar la imatge; o en les fletxes verdes per a mapes adjacents.


METAR-TAF: